IU2DXM Weather Reports


Display with metric or nautical units.
time (UTC)temp
F
wind
direction
speed
MPH
gust
MPH
rain 1hr
in
rain 24hr
in
rain mn
in
humidity
%
barometer
mb
20201026124026 60 0.0 97.0 0.02 0.03 0.03 83 1001.5
20201026123030 60 0.0 97.0 0.01 0.02 0.02 82 1001.5
20201026122020 60 0.0 97.0 0.00 0.01 0.01 81 1001.5
20201026121022 60 90 2.0 6.0 0.00 0.01 0.01 81 1001.5
20201026120037 60 112 1.0 6.0 0.00 0.01 0.01 81 1001.5
20201026115019 60 112 4.0 9.0 0.00 0.01 0.01 81 1001.7
20201026114017 60 90 5.0 9.0 0.00 0.01 0.01 80 1001.7
20201026113024 61 112 5.0 10.0 0.00 0.01 0.01 79 1001.7
20201026112019 60 112 5.0 10.0 0.00 0.01 0.01 79 1001.5
20201026111025 60 112 7.0 16.0 0.00 0.01 0.01 79 1002.0
20201026110027 60 112 7.0 12.0 0.00 0.01 0.01 79 1002.0
20201026105027 60 112 8.0 15.0 0.00 0.01 0.01 79 1002.0
20201026104018 59 112 8.0 15.0 0.00 0.01 0.01 80 1002.0
20201026103028 59 90 5.0 11.0 0.00 0.01 0.01 80 1002.0
20201026102018 59 112 7.0 13.0 0.00 0.01 0.01 80 1002.2
20201026101021 59 112 5.0 11.0 0.00 0.01 0.01 80 1002.2
20201026100041 59 112 9.0 14.0 0.00 0.01 0.01 79 1002.2
20201026095016 59 112 7.0 15.0 0.00 0.01 0.01 79 1002.2
20201026094016 59 112 7.0 12.0 0.00 0.01 0.01 78 1002.2
20201026093027 59 112 9.0 15.0 0.00 0.01 0.01 78 1002.2
20201026092021 59 112 9.0 16.0 0.00 0.01 0.01 78 1002.0
20201026091017 58 112 11.0 17.0 0.00 0.01 0.01 77 1002.3
20201026090024 58 112 10.0 15.0 0.00 0.01 0.01 78 1002.3
20201026085017 58 112 10.0 17.0 0.00 0.01 0.01 78 1002.5
20201026084015 58 112 11.0 17.0 0.00 0.01 0.01 78 1003.0
20201026083019 58 112 11.0 16.0 0.00 0.01 0.01 78 1003.0
20201026082022 58 112 9.0 14.0 0.00 0.01 0.01 78 1003.2
20201026081047 58 112 6.0 13.0 0.00 0.01 0.01 78 1003.0
20201026080029 58 90 9.0 17.0 0.00 0.01 0.01 77 1003.0
20201026075024 58 112 10.0 18.0 0.00 0.01 0.01 77 1003.3
20201026074021 58 112 9.0 16.0 0.00 0.01 0.01 78 1003.5
20201026073042 58 90 11.0 17.0 0.00 0.01 0.01 78 1003.5
20201026072017 58 90 9.0 16.0 0.00 0.01 0.01 79 1003.7
20201026071030 57 90 9.0 19.0 0.00 0.01 0.01 80 1004.1
20201026070034 57 0.0 86.0 0.00 0.01 0.01 82 1004.1
20201026065017 57 0.0 86.0 0.00 0.01 0.01 86 1004.0
20201026064017 57 0.0 86.0 0.01 0.01 0.01 84 1004.1
20201026063028 57 0.0 86.0 0.01 0.01 0.01 85 1004.1
20201026062037 56 0.0 86.0 0.01 0.01 0.01 86 1004.2
20201026061017 56 0.0 86.0 0.01 0.01 0.01 87 1004.4
20201026060024 56 0.0 97.0 0.01 0.01 0.01 87 1004.4
20201026055019 57 0.0 85.0 0.01 0.01 0.01 86 1004.2
20201026054019 57 0.0 86.0 0.00 0.00 0.00 85 1004.3
20201026053021 57 90 4.0 10.0 0.00 0.00 0.00 84 1004.3
20201026052019 57 90 6.0 10.0 0.00 0.00 0.00 83 1004.6
20201026051037 57 112 6.0 12.0 0.00 0.00 0.00 82 1004.8
20201026050025 58 112 7.0 13.0 0.00 0.00 0.00 82 1004.8
20201026045023 58 112 6.0 12.0 0.00 0.00 0.00 82 1004.9
20201026044020 58 90 3.0 6.0 0.00 0.00 0.00 82 1005.0
20201026043024 58 90 1.0 6.0 0.00 0.00 0.00 82 1005.0
20201026042017 58 90 2.0 7.0 0.00 0.00 0.00 82 1005.0
20201026041022 58 90 1.0 4.0 0.00 0.00 0.00 83 1005.2
20201026040029 58 67 2.0 5.0 0.00 0.00 0.00 82 1005.2
20201026035025 58 90 3.0 11.0 0.00 0.00 0.00 81 1005.6
20201026034029 58 90 5.0 11.0 0.00 0.00 0.00 82 1005.6
20201026033037 58 90 4.0 10.0 0.00 0.00 0.00 81 1005.6
20201026032019 58 112 4.0 11.0 0.00 0.00 0.00 82 1005.9
20201026031021 58 90 3.0 7.0 0.00 0.00 0.00 81 1006.2
20201026030029 59 0.0 1.0 0.00 0.00 0.00 78 1006.2
20201026025016 59 0.0 1.0 0.00 0.00 0.00 78 1006.2
20201026024028 59 112 2.0 6.0 0.00 0.00 0.00 78 1006.1
20201026023028 58 0.0 0.0 0.00 0.00 0.00 82 1006.1
20201026022020 58 0.0 1.0 0.00 0.00 0.00 82 1006.1
20201026021041 58 0.0 1.0 0.00 0.00 0.00 82 1006.7
20201026020025 58 112 1.0 4.0 0.00 0.00 0.00 82 1006.7
20201026015026 59 112 2.0 6.0 0.00 0.00 0.00 81 1006.8
20201026014016 59 112 1.0 5.0 0.00 0.00 0.00 81 1007.1
20201026013020 59 90 2.0 6.0 0.00 0.00 0.00 81 1007.1
20201026012016 59 90 1.0 6.0 0.00 0.00 0.00 82 1007.2
20201026011016 59 90 2.0 6.0 0.00 0.00 0.00 83 1007.3
20201026010028 59 67 3.0 7.0 0.00 0.00 0.00 84 1007.3
20201026005018 59 90 1.0 5.0 0.00 0.00 0.00 85 1007.6
20201026004028 58 90 1.0 4.0 0.00 0.00 0.00 86 1007.8
20201026003028 58 90 1.0 6.0 0.00 0.00 0.00 86 1007.8
20201026002017 58 90 2.0 5.0 0.00 0.00 0.00 85 1007.9
20201026001024 58 0.0 0.0 0.00 0.00 0.00 85 1008.2
20201026000021 58 90 1.0 5.0 0.00 0.00 0.00 84 1008.2
20201025235034 59 67 2.0 6.0 0.00 0.00 0.00 84 1008.3
20201025234017 59 90 1.0 5.0 0.00 0.00 0.00 83 1008.2
20201025233023 59 90 2.0 6.0 0.00 0.00 0.00 82 1008.2
20201025232022 59 90 1.0 6.0 0.00 0.00 0.00 82 1008.4
20201025231031 59 0.0 0.0 0.00 0.00 0.00 81 1008.5
20201025230021 59 67 3.0 9.0 0.00 0.00 0.00 80 1008.5
20201025225023 59 67 3.0 7.0 0.00 0.00 0.00 81 1008.6
20201025224018 59 67 3.0 6.0 0.00 0.00 0.00 81 1008.9
20201025223030 59 67 3.0 7.0 0.00 0.00 0.00 83 1008.9
20201025222016 59 67 3.0 6.0 0.00 0.00 0.00 84 1009.2
20201025221023 59 45 2.0 6.0 0.00 0.00 0.00 86 1009.2
20201025220022 58 67 1.0 5.0 0.00 0.00 0.00 88 1009.2
20201025215018 58 67 3.0 7.0 0.00 0.00 0.00 88 1009.3
20201025214031 58 67 1.0 7.0 0.00 0.00 0.00 88 1009.6
20201025213038 58 67 2.0 9.0 0.00 0.00 0.00 89 1009.6
20201025212017 58 67 2.0 6.0 0.00 0.00 0.00 89 1009.5
20201025211017 58 45 2.0 6.0 0.00 0.00 0.00 89 1009.8
20201025210021 58 0.0 2.0 0.00 0.00 0.00 89 1009.8
20201025205015 58 0.0 0.0 0.00 0.00 0.00 89 1009.9
20201025204022 58 0.0 1.0 0.00 0.00 0.00 89 1009.8
20201025203018 58 0.0 0.0 0.00 0.00 0.00 89 1009.8
20201025202019 59 0.0 0.0 0.00 0.00 0.00 88 1009.9
20201025201017 59 0.0 0.0 0.00 0.00 0.00 88 1009.9
20201025200020 59 0.0 0.0 0.00 0.00 0.00 88 1009.9
20201025195019 59 0.0 2.0 0.00 0.00 0.00 87 1009.9
20201025194017 59 0.0 1.0 0.00 0.00 0.00 86 1010.1
20201025193031 59 0.0 0.0 0.00 0.00 0.00 86 1010.1
20201025192028 59 0.0 0.0 0.00 0.00 0.00 86 1010.3
20201025191019 59 0.0 0.0 0.00 0.00 0.00 86 1010.2
20201025190046 60 0.0 0.0 0.00 0.00 0.00 86 1010.2
20201025185021 59 0.0 0.0 0.00 0.00 0.00 85 1010.3
20201025184020 60 0.0 0.0 0.00 0.00 0.00 85 1010.3
20201025183022 60 0.0 0.0 0.00 0.00 0.00 84 1010.3
20201025182024 60 0.0 0.0 0.00 0.00 0.00 84 1010.3
20201025181019 60 0.0 0.0 0.00 0.00 0.00 85 1010.3
20201025180047 60 0.0 0.0 0.00 0.00 0.00 85 1010.3
20201025175032 60 0.0 0.0 0.00 0.00 0.00 84 1010.3
20201025174018 60 0.0 0.0 0.00 0.00 0.00 83 1010.4
20201025173025 60 0.0 0.0 0.00 0.00 0.00 82 1010.4
20201025172040 60 0.0 0.0 0.00 0.00 0.00 82 1010.3
20201025171020 61 0.0 0.0 0.00 0.00 0.00 80 1010.5
20201025170048 61 0.0 0.0 0.00 0.00 0.00 80 1010.5
20201025165017 62 0.0 0.0 0.00 0.00 0.00 79 1010.4
20201025164019 62 0.0 0.0 0.00 0.00 0.00 78 1010.3
20201025163046 62 0.0 0.0 0.00 0.00 0.00 77 1010.3
20201025162017 62 0.0 0.0 0.00 0.00 0.00 76 1010.3
20201025161021 62 0.0 0.0 0.00 0.00 0.00 75 1010.3
20201025160045 62 0.0 0.0 0.00 0.00 0.00 74 1010.3
20201025155021 63 0.0 0.0 0.00 0.00 0.00 74 1010.3
20201025154017 63 0.0 0.0 0.00 0.00 0.00 73 1010.3
20201025153028 63 0.0 0.0 0.00 0.00 0.00 72 1010.3
20201025152017 63 0.0 0.0 0.00 0.00 0.00 71 1010.4
20201025151019 64 0.0 0.0 0.00 0.00 0.00 70 1010.4
20201025150026 64 0.0 0.0 0.00 0.00 0.00 68 1010.4
20201025145016 64 0.0 0.0 0.00 0.00 0.00 67 1010.5
20201025144024 64 0.0 0.0 0.00 0.00 0.00 68 1010.7
20201025143021 64 0.0 0.0 0.00 0.00 0.00 67 1010.7
20201025142018 64 0.0 0.0 0.00 0.00 0.00 68 1010.8
20201025141020 64 0.0 0.0 0.00 0.00 0.00 67 1010.9
20201025140019 64 0.0 0.0 0.00 0.00 0.00 66 1010.9
20201025135024 64 0.0 0.0 0.00 0.00 0.00 65 1010.9
20201025134020 64 0.0 0.0 0.00 0.00 0.00 67 1011.0
20201025133020 64 0.0 1.0 0.00 0.00 0.00 64 1011.0
20201025132026 64 0.0 1.0 0.00 0.00 0.00 64 1011.1
20201025131018 64 0.0 0.0 0.00 0.00 0.00 66 1011.3
20201025130026 64 0.0 1.0 0.00 0.00 0.00 65 1011.3
20201025125016 64 0.0 1.0 0.00 0.00 0.00 68 1011.4